createdAt,value
2022-09-22T00:00:06.500Z,93.39
2022-09-22T00:01:06.528Z,93.39
2022-09-22T00:02:06.528Z,93.39
2022-09-22T00:03:06.422Z,93.39
2022-09-22T00:04:06.473Z,93.49
2022-09-22T00:05:06.405Z,93.49
2022-09-22T00:06:06.491Z,93.59
2022-09-22T00:07:06.374Z,93.59
2022-09-22T00:08:06.565Z,93.64
2022-09-22T00:09:06.486Z,93.64
2022-09-22T00:10:06.399Z,93.64
2022-09-22T00:11:06.347Z,93.64
2022-09-22T00:12:06.333Z,93.64
2022-09-22T00:13:06.325Z,93.64
2022-09-22T00:14:06.344Z,93.74
2022-09-22T00:15:06.295Z,93.74
2022-09-22T00:16:06.346Z,93.74
2022-09-22T00:17:06.295Z,93.74
2022-09-22T00:18:06.422Z,93.74
2022-09-22T00:19:06.585Z,93.74
2022-09-22T00:20:06.342Z,93.84
2022-09-22T00:21:06.237Z,93.84
2022-09-22T00:22:06.403Z,93.84
2022-09-22T00:23:06.226Z,93.84
2022-09-22T00:24:06.251Z,93.84
2022-09-22T00:25:06.208Z,93.95
2022-09-22T00:26:06.337Z,93.84
2022-09-22T00:27:06.175Z,93.84
2022-09-22T00:28:06.197Z,93.84
2022-09-22T00:29:06.156Z,93.88
2022-09-22T00:30:06.143Z,93.88
2022-09-22T00:31:06.174Z,93.88
2022-09-22T00:32:07.571Z,93.88
2022-09-22T00:33:06.136Z,93.99
2022-09-22T00:34:06.103Z,93.88
2022-09-22T00:35:06.076Z,93.88
2022-09-22T00:36:06.198Z,93.99
2022-09-22T00:37:06.056Z,93.99
2022-09-22T00:38:06.080Z,93.99
2022-09-22T00:39:06.174Z,93.99
2022-09-22T00:40:06.098Z,93.99
2022-09-22T00:41:06.008Z,93.88
2022-09-22T00:42:06.050Z,93.88
2022-09-22T00:43:05.997Z,93.88
2022-09-22T00:44:06.056Z,93.88
2022-09-22T00:45:05.978Z,93.88
2022-09-22T00:46:05.967Z,93.93
2022-09-22T00:47:05.968Z,93.93
2022-09-22T00:48:06.022Z,94.03
2022-09-22T00:49:05.941Z,94.13
2022-09-22T00:50:06.019Z,94.24
2022-09-22T00:51:05.917Z,94.24
2022-09-22T00:52:05.951Z,94.45
2022-09-22T00:53:05.909Z,94.55
2022-09-22T00:54:05.976Z,94.55
2022-09-22T00:55:05.868Z,94.55
2022-09-22T00:56:05.912Z,94.55
2022-09-22T00:57:05.860Z,94.55
2022-09-22T00:58:05.891Z,94.65
2022-09-22T00:59:05.827Z,94.65
2022-09-22T01:00:05.816Z,94.65
2022-09-22T01:01:05.918Z,94.65
2022-09-22T01:02:05.937Z,94.65
2022-09-22T01:03:05.798Z,94.65
2022-09-22T01:04:05.763Z,94.65
2022-09-22T01:05:05.769Z,94.65
2022-09-22T01:06:05.770Z,94.76
2022-09-22T01:07:05.731Z,94.76
2022-09-22T01:08:05.762Z,94.76
2022-09-22T01:09:05.765Z,94.76
2022-09-22T01:10:05.699Z,94.76
2022-09-22T01:11:05.701Z,94.76
2022-09-22T01:12:05.681Z,94.76
2022-09-22T01:13:05.681Z,94.76
2022-09-22T01:14:05.686Z,94.65
2022-09-22T01:15:05.651Z,94.65
2022-09-22T01:16:05.742Z,94.65
2022-09-22T01:17:05.671Z,94.55
2022-09-22T01:18:05.624Z,94.55
2022-09-22T01:19:05.612Z,94.55
2022-09-22T01:20:05.611Z,94.55
2022-09-22T01:21:05.592Z,94.45
2022-09-22T01:22:05.572Z,94.45
2022-09-22T01:23:05.573Z,94.45
2022-09-22T01:24:05.621Z,94.45
2022-09-22T01:25:05.553Z,94.45
2022-09-22T01:26:05.596Z,94.45
2022-09-22T01:27:05.523Z,94.45
2022-09-22T01:28:05.513Z,94.45
2022-09-22T01:29:05.504Z,94.34
2022-09-22T01:30:05.510Z,94.34
2022-09-22T01:31:05.628Z,94.34
2022-09-22T01:32:05.492Z,94.34
2022-09-22T01:33:05.472Z,94.38
2022-09-22T01:34:05.443Z,94.34
2022-09-22T01:35:05.442Z,94.28
2022-09-22T01:36:05.427Z,94.28
2022-09-22T01:37:05.416Z,94.28
2022-09-22T01:38:05.460Z,94.38
2022-09-22T01:39:05.625Z,94.38
2022-09-22T01:40:05.465Z,94.38
2022-09-22T01:41:05.505Z,94.38
2022-09-22T01:42:05.355Z,94.49
2022-09-22T01:43:05.354Z,94.49
2022-09-22T01:44:05.334Z,94.59
2022-09-22T01:45:05.327Z,94.70
2022-09-22T01:46:05.348Z,94.80
2022-09-22T01:47:05.355Z,94.80
2022-09-22T01:48:05.371Z,94.80
2022-09-22T01:49:05.385Z,94.70
2022-09-22T01:50:05.315Z,94.70
2022-09-22T01:51:05.305Z,94.70
2022-09-22T01:52:05.306Z,94.70
2022-09-22T01:53:05.266Z,94.70
2022-09-22T01:54:05.346Z,94.59
2022-09-22T01:55:05.227Z,94.70
2022-09-22T01:56:05.219Z,94.70
2022-09-22T01:57:05.197Z,94.74
2022-09-22T01:58:05.200Z,94.74
2022-09-22T01:59:05.187Z,94.74
2022-09-22T02:00:05.267Z,94.74
2022-09-22T02:01:05.157Z,94.74
2022-09-22T02:02:05.289Z,94.84
2022-09-22T02:03:05.158Z,94.74
2022-09-22T02:04:05.134Z,94.84
2022-09-22T02:05:05.110Z,94.84
2022-09-22T02:06:05.444Z,94.95
2022-09-22T02:07:05.087Z,94.95
2022-09-22T02:08:05.152Z,95.05
2022-09-22T02:09:05.131Z,95.15
2022-09-22T02:10:05.101Z,95.25
2022-09-22T02:11:05.049Z,95.25
2022-09-22T02:12:05.177Z,95.36
2022-09-22T02:13:05.029Z,95.40
2022-09-22T02:14:05.218Z,95.46
2022-09-22T02:15:05.000Z,95.46
2022-09-22T02:16:05.294Z,95.46
2022-09-22T02:17:04.980Z,95.61
2022-09-22T02:18:04.979Z,95.61
2022-09-22T02:19:12.557Z,95.61
2022-09-22T02:20:05.983Z,95.61
2022-09-22T02:21:04.933Z,95.61
2022-09-22T02:22:04.922Z,95.61
2022-09-22T02:23:04.909Z,95.61
2022-09-22T02:24:04.921Z,95.61
2022-09-22T02:25:04.891Z,95.61
2022-09-22T02:26:04.891Z,95.71
2022-09-22T02:27:04.870Z,95.71
2022-09-22T02:28:04.871Z,95.71
2022-09-22T02:29:04.852Z,95.71
2022-09-22T02:30:04.924Z,95.71
2022-09-22T02:31:19.674Z,95.71
2022-09-22T02:32:05.904Z,95.71
2022-09-22T02:33:04.821Z,95.61
2022-09-22T02:34:04.800Z,95.61
2022-09-22T02:35:04.803Z,95.61
2022-09-22T02:36:04.810Z,95.61
2022-09-22T02:37:04.761Z,95.61
2022-09-22T02:38:04.791Z,95.71
2022-09-22T02:39:04.891Z,95.71
2022-09-22T02:40:04.898Z,95.71
2022-09-22T02:41:04.720Z,95.81
2022-09-22T02:42:04.703Z,95.81
2022-09-22T02:43:04.692Z,95.81
2022-09-22T02:44:04.808Z,95.81
2022-09-22T02:45:04.684Z,95.86
2022-09-22T02:46:04.704Z,95.86
2022-09-22T02:47:04.652Z,95.96
2022-09-22T02:48:04.771Z,95.96
2022-09-22T02:49:04.630Z,95.96
2022-09-22T02:50:04.666Z,96.06
2022-09-22T02:51:04.603Z,96.06
2022-09-22T02:52:04.605Z,96.17
2022-09-22T02:53:04.595Z,96.17
2022-09-22T02:54:04.625Z,96.17
2022-09-22T02:55:04.602Z,96.17
2022-09-22T02:56:04.598Z,96.27
2022-09-22T02:57:04.533Z,96.27
2022-09-22T02:58:04.532Z,96.27
2022-09-22T02:59:04.613Z,96.27
2022-09-22T03:00:04.539Z,96.27
2022-09-22T03:01:04.534Z,96.23
2022-09-22T03:02:04.536Z,96.27
2022-09-22T03:03:04.473Z,96.27
2022-09-22T03:04:04.484Z,96.27
2022-09-22T03:05:04.591Z,96.27
2022-09-22T03:06:04.458Z,96.27
2022-09-22T03:07:04.451Z,96.27
2022-09-22T03:08:04.469Z,96.27
2022-09-22T03:09:04.405Z,96.27
2022-09-22T03:10:04.458Z,96.27
2022-09-22T03:11:04.386Z,96.17
2022-09-22T03:12:04.375Z,96.17
2022-09-22T03:13:19.705Z,96.17
2022-09-22T03:14:05.353Z,96.17
2022-09-22T03:15:04.355Z,96.17
2022-09-22T03:16:04.446Z,96.27
2022-09-22T03:17:04.327Z,96.27
2022-09-22T03:18:04.466Z,96.27
2022-09-22T03:19:04.296Z,96.27
2022-09-22T03:20:05.287Z,96.27
2022-09-22T03:21:04.286Z,96.27
2022-09-22T03:22:04.297Z,96.27
2022-09-22T03:23:04.256Z,96.27
2022-09-22T03:24:04.328Z,96.27
2022-09-22T03:25:04.240Z,96.27
2022-09-22T03:26:04.319Z,96.17
2022-09-22T03:27:04.227Z,96.17
2022-09-22T03:28:04.236Z,96.17
2022-09-22T03:29:04.186Z,96.17
2022-09-22T03:30:04.367Z,96.27
2022-09-22T03:31:04.190Z,96.27
2022-09-22T03:32:04.168Z,96.27
2022-09-22T03:33:04.149Z,96.27
2022-09-22T03:34:04.135Z,96.37
2022-09-22T03:35:04.156Z,96.37
2022-09-22T03:36:04.166Z,96.37
2022-09-22T03:37:04.098Z,96.48
2022-09-22T03:38:04.098Z,96.58
2022-09-22T03:39:04.090Z,96.58
2022-09-22T03:40:04.245Z,96.69
2022-09-22T03:41:04.087Z,96.69
2022-09-22T03:42:04.129Z,96.69
2022-09-22T03:43:04.028Z,96.69
2022-09-22T03:44:04.038Z,96.69
2022-09-22T03:45:04.019Z,96.79
2022-09-22T03:46:04.139Z,96.69
2022-09-22T03:47:04.000Z,96.79
2022-09-22T03:48:04.001Z,96.79
2022-09-22T03:49:03.973Z,96.79
2022-09-22T03:50:03.969Z,96.79
2022-09-22T03:51:03.958Z,96.79
2022-09-22T03:52:03.959Z,96.79
2022-09-22T03:53:03.926Z,96.89
2022-09-22T03:54:03.921Z,96.89
2022-09-22T03:55:03.900Z,96.89
2022-09-22T03:56:03.926Z,96.89
2022-09-22T03:57:03.890Z,96.79
2022-09-22T03:58:03.909Z,96.79
2022-09-22T03:59:03.887Z,96.79
2022-09-22T04:00:03.898Z,96.89
2022-09-22T04:01:03.902Z,96.89
2022-09-22T04:02:03.944Z,96.79
2022-09-22T04:03:03.812Z,96.79
2022-09-22T04:04:03.816Z,96.89
2022-09-22T04:05:03.803Z,96.79
2022-09-22T04:06:03.818Z,96.79
2022-09-22T04:07:07.412Z,96.89
2022-09-22T04:08:03.771Z,96.79
2022-09-22T04:09:03.771Z,96.79
2022-09-22T04:10:03.738Z,96.79
2022-09-22T04:11:03.741Z,96.79
2022-09-22T04:12:03.718Z,96.79
2022-09-22T04:13:03.710Z,96.79
2022-09-22T04:14:03.956Z,96.79
2022-09-22T04:15:03.695Z,96.79
2022-09-22T04:16:03.703Z,96.79
2022-09-22T04:17:03.746Z,96.79
2022-09-22T04:18:03.767Z,96.79
2022-09-22T04:19:03.644Z,96.89
2022-09-22T04:20:03.650Z,96.89
2022-09-22T04:21:03.640Z,96.99
2022-09-22T04:22:03.793Z,96.99
2022-09-22T04:23:03.610Z,96.99
2022-09-22T04:24:03.715Z,96.99
2022-09-22T04:25:03.572Z,96.99
2022-09-22T04:26:03.584Z,97.09
2022-09-22T04:27:20.654Z,97.09
2022-09-22T04:28:05.674Z,97.09
2022-09-22T04:29:03.558Z,97.09
2022-09-22T04:30:03.567Z,97.09
2022-09-22T04:31:03.584Z,97.20
2022-09-22T04:32:03.515Z,97.20
2022-09-22T04:33:03.484Z,97.20
2022-09-22T04:34:07.460Z,97.20
2022-09-22T04:35:03.465Z,97.20
2022-09-22T04:36:03.475Z,97.20
2022-09-22T04:37:03.444Z,97.20
2022-09-22T04:38:03.492Z,97.20
2022-09-22T04:39:03.464Z,97.30
2022-09-22T04:40:03.539Z,97.30
2022-09-22T04:41:03.421Z,97.30
2022-09-22T04:42:03.406Z,97.30
2022-09-22T04:43:03.373Z,97.30
2022-09-22T04:44:03.380Z,97.30
2022-09-22T04:45:03.353Z,97.30
2022-09-22T04:46:03.475Z,97.34
2022-09-22T04:47:03.346Z,97.34
2022-09-22T04:48:03.445Z,97.34
2022-09-22T04:49:03.325Z,97.30
2022-09-22T04:50:03.313Z,97.34
2022-09-22T04:51:03.313Z,97.45
2022-09-22T04:52:03.327Z,97.45
2022-09-22T04:53:03.277Z,97.45
2022-09-22T04:54:03.346Z,97.45
2022-09-22T04:55:03.257Z,97.45
2022-09-22T04:56:03.253Z,97.45
2022-09-22T04:57:03.385Z,97.55
2022-09-22T04:58:03.332Z,97.55
2022-09-22T04:59:03.196Z,97.55
2022-09-22T05:00:03.230Z,97.55
2022-09-22T05:01:03.238Z,97.66
2022-09-22T05:02:03.202Z,97.55
2022-09-22T05:03:03.193Z,97.66
2022-09-22T05:04:03.157Z,97.66
2022-09-22T05:05:03.141Z,97.66
2022-09-22T05:06:03.178Z,97.66
2022-09-22T05:07:03.125Z,97.66
2022-09-22T05:08:03.155Z,97.66
2022-09-22T05:09:03.113Z,97.66
2022-09-22T05:10:03.124Z,97.66
2022-09-22T05:11:03.068Z,97.66
2022-09-22T05:12:03.209Z,97.66
2022-09-22T05:13:03.057Z,97.66
2022-09-22T05:14:03.037Z,97.66
2022-09-22T05:15:03.028Z,97.76
2022-09-22T05:16:03.290Z,97.76
2022-09-22T05:17:03.027Z,97.76
2022-09-22T05:18:03.040Z,97.76
2022-09-22T05:19:02.997Z,97.76
2022-09-22T05:20:02.987Z,97.76
2022-09-22T05:21:02.973Z,97.76
2022-09-22T05:22:03.101Z,97.76
2022-09-22T05:23:02.946Z,97.76
2022-09-22T05:24:03.340Z,97.76
2022-09-22T05:25:02.933Z,97.76
2022-09-22T05:26:02.987Z,97.86
2022-09-22T05:27:02.911Z,97.86
2022-09-22T05:28:03.128Z,97.86
2022-09-22T05:29:02.878Z,97.86
2022-09-22T05:30:02.990Z,97.86
2022-09-22T05:31:02.890Z,97.86
2022-09-22T05:32:02.989Z,97.86
2022-09-22T05:33:02.830Z,97.97
2022-09-22T05:34:02.865Z,97.86
2022-09-22T05:35:02.827Z,97.97
2022-09-22T05:36:03.013Z,97.97
2022-09-22T05:37:02.810Z,97.97
2022-09-22T05:38:02.793Z,98.07
2022-09-22T05:39:02.819Z,98.07
2022-09-22T05:40:02.827Z,98.07
2022-09-22T05:41:02.749Z,98.07
2022-09-22T05:42:05.348Z,98.07
2022-09-22T05:43:02.720Z,98.07
2022-09-22T05:44:02.819Z,98.07
2022-09-22T05:45:02.750Z,98.07
2022-09-22T05:46:02.857Z,98.07
2022-09-22T05:47:02.710Z,98.07
2022-09-22T05:48:02.742Z,98.07
2022-09-22T05:49:02.664Z,98.07
2022-09-22T05:50:02.669Z,98.18
2022-09-22T05:51:02.661Z,98.18
2022-09-22T05:52:02.671Z,98.18
2022-09-22T05:53:02.756Z,98.18
2022-09-22T05:54:02.643Z,98.18
2022-09-22T05:55:02.618Z,98.23
2022-09-22T05:56:03.147Z,98.23
2022-09-22T05:57:02.585Z,98.33
2022-09-22T05:58:02.631Z,98.33
2022-09-22T05:59:02.551Z,98.33
2022-09-22T06:00:02.539Z,98.44
2022-09-22T06:01:02.584Z,98.44
2022-09-22T06:02:13.255Z,98.44
2022-09-22T06:03:03.629Z,98.44
2022-09-22T06:04:02.534Z,98.54
2022-09-22T06:05:02.492Z,98.54
2022-09-22T06:06:02.583Z,98.60
2022-09-22T06:07:02.578Z,98.60
2022-09-22T06:08:02.581Z,98.70
2022-09-22T06:09:02.518Z,98.70
2022-09-22T06:10:02.482Z,98.70
2022-09-22T06:11:02.421Z,98.80
2022-09-22T06:12:02.454Z,98.80
2022-09-22T06:13:02.406Z,98.91
2022-09-22T06:14:02.947Z,99.01
2022-09-22T06:15:02.679Z,98.97
2022-09-22T06:16:02.448Z,98.97
2022-09-22T06:17:02.360Z,99.07
2022-09-22T06:18:02.354Z,99.07
2022-09-22T06:19:02.353Z,99.17
2022-09-22T06:20:02.338Z,99.17
2022-09-22T06:21:02.304Z,99.27
2022-09-22T06:22:02.384Z,99.23
2022-09-22T06:23:02.590Z,99.23
2022-09-22T06:24:02.282Z,99.33
2022-09-22T06:25:02.264Z,99.33
2022-09-22T06:26:02.315Z,99.43
2022-09-22T06:27:02.345Z,99.54
2022-09-22T06:28:02.285Z,99.49
2022-09-22T06:29:02.227Z,99.60
2022-09-22T06:30:02.225Z,99.60
2022-09-22T06:31:02.204Z,99.70
2022-09-22T06:32:02.610Z,99.76
2022-09-22T06:33:02.195Z,99.86
2022-09-22T06:34:06.853Z,99.96
2022-09-22T06:35:03.157Z,99.99
2022-09-22T06:36:02.267Z,99.99
2022-09-22T06:37:02.145Z,99.99
2022-09-22T06:38:02.159Z,99.99
2022-09-22T06:39:02.123Z,99.99
2022-09-22T06:40:02.351Z,99.99
2022-09-22T06:41:02.136Z,99.99
2022-09-22T06:42:02.088Z,99.99
2022-09-22T06:43:02.077Z,99.99
2022-09-22T06:44:02.079Z,99.99
2022-09-22T06:45:02.047Z,99.99
2022-09-22T06:46:02.137Z,99.99
2022-09-22T06:47:02.091Z,99.99
2022-09-22T06:48:05.198Z,99.88
2022-09-22T06:49:03.008Z,99.77
2022-09-22T06:50:02.113Z,99.67
2022-09-22T06:51:01.991Z,99.57
2022-09-22T06:52:02.007Z,99.47
2022-09-22T06:53:01.978Z,99.21
2022-09-22T06:54:02.029Z,99.11
2022-09-22T06:55:01.970Z,98.91
2022-09-22T06:56:02.320Z,98.80
2022-09-22T06:57:02.147Z,98.70
2022-09-22T06:58:02.764Z,98.55
2022-09-22T06:59:10.485Z,98.45
2022-09-22T07:00:02.959Z,98.45
2022-09-22T07:01:04.249Z,98.30
2022-09-22T07:02:02.987Z,98.10
2022-09-22T07:03:01.874Z,97.89
2022-09-22T07:04:01.851Z,97.79
2022-09-22T07:05:02.059Z,97.54
2022-09-22T07:06:01.875Z,97.23
2022-09-22T07:07:01.810Z,96.82
2022-09-22T07:08:01.812Z,96.31
2022-09-22T07:09:01.794Z,95.95
2022-09-22T07:10:01.791Z,95.34
2022-09-22T07:11:01.778Z,94.42
2022-09-22T07:12:02.056Z,93.60
2022-09-22T07:13:01.763Z,93.04
2022-09-22T07:14:01.836Z,92.83
2022-09-22T07:15:01.724Z,92.74
2022-09-22T07:16:01.821Z,92.49
2022-09-22T07:17:01.704Z,92.28
2022-09-22T07:18:01.723Z,91.87
2022-09-22T07:19:01.690Z,91.56
2022-09-22T07:20:01.687Z,91.42
2022-09-22T07:21:01.864Z,91.63
2022-09-22T07:22:01.669Z,91.83
2022-09-22T07:23:01.727Z,91.89
2022-09-22T07:24:01.639Z,91.89
2022-09-22T07:25:01.625Z,91.33
2022-09-22T07:26:01.607Z,91.33
2022-09-22T07:27:01.616Z,90.88
2022-09-22T07:28:01.597Z,89.65
2022-09-22T07:29:01.578Z,88.29
2022-09-22T07:30:01.578Z,87.57
2022-09-22T07:31:01.627Z,87.32
2022-09-22T07:32:01.565Z,86.82
2022-09-22T07:33:01.542Z,85.65
2022-09-22T07:34:01.520Z,85.04
2022-09-22T07:35:01.509Z,84.39
2022-09-22T07:36:01.515Z,83.98
2022-09-22T07:37:01.481Z,83.73
2022-09-22T07:38:01.499Z,83.23
2022-09-22T07:39:01.471Z,82.71
2022-09-22T07:40:01.672Z,82.27
2022-09-22T07:41:01.462Z,82.33
2022-09-22T07:42:01.450Z,82.40
2022-09-22T07:43:01.430Z,82.09
2022-09-22T07:44:01.422Z,80.93
2022-09-22T07:45:01.404Z,79.98
2022-09-22T07:46:01.386Z,78.76
2022-09-22T07:47:01.493Z,77.60
2022-09-22T07:48:01.391Z,77.81
2022-09-22T07:49:01.412Z,77.06
2022-09-22T07:50:01.344Z,76.45
2022-09-22T07:51:01.335Z,75.90
2022-09-22T07:52:01.329Z,75.60
2022-09-22T07:53:01.335Z,75.46
2022-09-22T07:54:01.342Z,74.62
2022-09-22T07:55:01.296Z,74.31
2022-09-22T07:56:01.287Z,73.77
2022-09-22T07:57:01.297Z,73.16
2022-09-22T07:58:01.256Z,72.82
2022-09-22T07:59:01.278Z,72.68
2022-09-22T08:00:01.261Z,72.34
2022-09-22T08:01:01.331Z,70.72
2022-09-22T08:02:01.299Z,70.49
2022-09-22T08:03:01.506Z,70.79
2022-09-22T08:04:01.193Z,70.15
2022-09-22T08:05:01.201Z,68.53
2022-09-22T08:06:05.857Z,68.40
2022-09-22T08:07:02.171Z,67.69
2022-09-22T08:08:01.160Z,66.95
2022-09-22T08:09:01.143Z,66.75
2022-09-22T08:10:01.123Z,66.85
2022-09-22T08:11:01.122Z,66.52
2022-09-22T08:12:01.131Z,66.31
2022-09-22T08:13:01.094Z,65.40
2022-09-22T08:14:01.086Z,65.30
2022-09-22T08:15:01.085Z,65.40
2022-09-22T08:16:01.084Z,65.47
2022-09-22T08:17:01.074Z,65.57
2022-09-22T08:18:01.046Z,65.07
2022-09-22T08:19:01.037Z,65.07
2022-09-22T08:20:01.028Z,65.17
2022-09-22T08:21:01.017Z,64.36
2022-09-22T08:22:01.008Z,63.82
2022-09-22T08:23:00.997Z,64.23
2022-09-22T08:24:00.997Z,64.40
2022-09-22T08:25:00.970Z,63.67
2022-09-22T08:26:00.990Z,63.36
2022-09-22T08:27:00.971Z,62.32
2022-09-22T08:28:00.929Z,62.49
2022-09-22T08:29:01.024Z,62.40
2022-09-22T08:30:00.931Z,61.96
2022-09-22T08:31:00.980Z,60.72
2022-09-22T08:32:00.945Z,59.99
2022-09-22T08:33:00.894Z,59.36
2022-09-22T08:34:00.874Z,58.65
2022-09-22T08:35:00.885Z,57.62
2022-09-22T08:36:00.855Z,58.02
2022-09-22T08:37:00.884Z,58.93
2022-09-22T08:38:00.968Z,58.22
2022-09-22T08:39:00.895Z,58.20
2022-09-22T08:40:00.806Z,57.50
2022-09-22T08:41:00.805Z,57.29
2022-09-22T08:42:00.798Z,56.09
2022-09-22T08:43:00.789Z,56.76
2022-09-22T08:44:00.767Z,56.76
2022-09-22T08:45:00.767Z,55.26
2022-09-22T08:46:00.738Z,55.86
2022-09-22T08:47:00.847Z,56.16
2022-09-22T08:48:00.733Z,56.16
2022-09-22T08:49:00.719Z,55.46
2022-09-22T08:50:00.710Z,56.46
2022-09-22T08:51:00.701Z,55.35
2022-09-22T08:52:00.693Z,55.66
2022-09-22T08:53:00.685Z,55.76
2022-09-22T08:54:03.551Z,56.96
2022-09-22T08:55:00.674Z,55.66
2022-09-22T08:56:00.648Z,55.76
2022-09-22T08:57:00.654Z,55.35
2022-09-22T08:58:00.623Z,55.73
2022-09-22T08:59:00.628Z,55.93
2022-09-22T09:00:00.664Z,55.33
2022-09-22T09:01:00.595Z,54.83
2022-09-22T09:02:00.647Z,55.76
2022-09-22T09:03:00.713Z,55.86
2022-09-22T09:04:00.666Z,55.05
2022-09-22T09:05:00.550Z,55.55
2022-09-22T09:06:00.543Z,55.86
2022-09-22T09:07:00.549Z,54.45
2022-09-22T09:08:00.535Z,54.55
2022-09-22T09:09:04.791Z,55.35
2022-09-22T09:10:01.491Z,55.43
2022-09-22T09:11:00.494Z,55.83
2022-09-22T09:12:00.492Z,54.83
2022-09-22T09:13:00.473Z,55.03
2022-09-22T09:14:00.488Z,54.20
2022-09-22T09:15:00.446Z,53.70
2022-09-22T09:16:00.566Z,55.10
2022-09-22T09:17:00.444Z,54.30
2022-09-22T09:18:00.435Z,54.10
2022-09-22T09:19:00.406Z,53.59
2022-09-22T09:20:00.409Z,53.30
2022-09-22T09:21:00.387Z,53.22
2022-09-22T09:22:00.398Z,53.02
2022-09-22T09:23:00.376Z,53.72
2022-09-22T09:26:01.367Z,54.22
2022-09-22T09:27:00.330Z,55.63
2022-09-22T09:28:00.321Z,54.02
2022-09-22T09:29:03.628Z,53.62
2022-09-22T09:30:00.308Z,54.13
2022-09-22T09:31:00.327Z,54.05
2022-09-22T09:32:00.305Z,52.74
2022-09-22T09:33:00.263Z,53.95
2022-09-22T09:34:00.282Z,53.65
2022-09-22T09:35:00.275Z,54.25
2022-09-22T09:36:00.243Z,53.95
2022-09-22T09:37:00.245Z,54.65
2022-09-22T09:38:00.282Z,54.65
2022-09-22T09:39:00.295Z,55.16
2022-09-22T09:40:00.198Z,54.55
2022-09-22T09:41:00.185Z,53.34
2022-09-22T09:42:00.198Z,54.35
2022-09-22T09:43:01.660Z,53.45
2022-09-22T09:44:00.158Z,55.55
2022-09-22T09:45:00.151Z,55.05
2022-09-22T09:46:00.201Z,54.05
2022-09-22T09:47:00.152Z,54.25
2022-09-22T09:48:00.122Z,54.25
2022-09-22T09:49:00.104Z,53.62
2022-09-22T09:50:00.116Z,53.72
2022-09-22T09:51:00.082Z,54.83
2022-09-22T09:52:00.113Z,53.52
2022-09-22T09:53:00.075Z,53.82
2022-09-22T09:54:00.074Z,53.20
2022-09-22T09:55:00.036Z,51.89
2022-09-22T09:56:00.045Z,51.89
2022-09-22T09:57:00.085Z,51.59
2022-09-22T09:58:00.015Z,52.59
2022-09-22T09:59:00.047Z,51.89
2022-09-22T09:59:59.998Z,51.39
2022-09-22T10:00:59.987Z,50.09
2022-09-22T10:02:00.057Z,50.01
2022-09-22T10:02:59.979Z,48.90
2022-09-22T10:04:00.011Z,50.71
2022-09-22T10:04:59.951Z,50.84
2022-09-22T10:06:00.005Z,50.13
2022-09-22T10:07:01.565Z,51.84
2022-09-22T10:07:59.952Z,50.33
2022-09-22T10:08:59.921Z,50.43
2022-09-22T10:09:59.900Z,50.46
2022-09-22T10:10:59.883Z,50.15
2022-09-22T10:12:00.067Z,51.97
2022-09-22T10:12:59.880Z,52.06
2022-09-22T10:13:59.855Z,52.17
2022-09-22T10:14:59.855Z,51.56
2022-09-22T10:15:59.876Z,50.96
2022-09-22T10:16:59.961Z,53.47
2022-09-22T10:17:59.819Z,50.35
2022-09-22T10:18:59.805Z,50.86
2022-09-22T10:19:59.858Z,52.04
2022-09-22T10:20:59.788Z,51.24
2022-09-22T10:21:59.888Z,52.04
2022-09-22T10:22:59.781Z,51.74
2022-09-22T10:23:59.760Z,50.26
2022-09-22T10:24:59.740Z,52.37
2022-09-22T10:25:59.741Z,54.50
2022-09-22T10:27:02.513Z,52.82
2022-09-22T10:28:00.732Z,54.13
2022-09-22T10:28:59.713Z,52.54
2022-09-22T10:29:59.858Z,55.16
2022-09-22T10:30:59.728Z,55.36
2022-09-22T10:31:59.694Z,54.18
2022-09-22T10:32:59.673Z,52.97
2022-09-22T10:33:59.674Z,52.06
2022-09-22T10:34:59.648Z,53.38
2022-09-22T10:35:59.646Z,54.58
2022-09-22T10:36:59.636Z,52.77
2022-09-22T10:37:59.631Z,51.26
2022-09-22T10:39:00.129Z,55.08
2022-09-22T10:39:59.608Z,53.27
2022-09-22T10:40:59.590Z,51.26
2022-09-22T10:41:59.599Z,52.57
2022-09-22T10:42:59.570Z,51.66
2022-09-22T10:44:03.122Z,53.27
2022-09-22T10:45:00.560Z,52.97
2022-09-22T10:45:59.560Z,53.14
2022-09-22T10:46:59.553Z,50.43
2022-09-22T10:47:59.523Z,50.83
2022-09-22T10:48:59.528Z,51.93
2022-09-22T10:49:59.524Z,54.03
2022-09-22T10:50:59.504Z,51.59
2022-09-22T10:51:59.484Z,51.29
2022-09-22T10:52:59.493Z,50.05
2022-09-22T10:53:59.465Z,49.85
2022-09-22T10:54:59.477Z,49.76
2022-09-22T10:55:59.458Z,50.73
2022-09-22T10:56:59.456Z,50.73
2022-09-22T10:57:59.463Z,48.32
2022-09-22T10:58:59.478Z,49.85
2022-09-22T10:59:59.416Z,47.44
2022-09-22T11:00:59.429Z,48.17
2022-09-22T11:01:59.498Z,49.77
2022-09-22T11:02:59.400Z,48.57
2022-09-22T11:03:59.439Z,49.27
2022-09-22T11:04:59.413Z,49.98
2022-09-22T11:05:59.342Z,48.90
2022-09-22T11:06:59.353Z,50.00
2022-09-22T11:07:59.331Z,49.19
2022-09-22T11:08:59.345Z,48.77
2022-09-22T11:09:59.323Z,50.78
2022-09-22T11:10:59.304Z,51.89
2022-09-22T11:11:59.334Z,47.86
2022-09-22T11:12:59.287Z,49.85
2022-09-22T11:13:59.269Z,48.35
2022-09-22T11:14:59.267Z,47.74
2022-09-22T11:15:59.282Z,47.64
2022-09-22T11:16:59.288Z,45.73
2022-09-22T11:17:59.247Z,47.44
2022-09-22T11:18:59.362Z,47.14
2022-09-22T11:19:59.211Z,48.25
2022-09-22T11:20:59.222Z,47.24
2022-09-22T11:21:59.193Z,47.64
2022-09-22T11:22:59.210Z,46.54
2022-09-22T11:23:59.173Z,46.54
2022-09-22T11:24:59.170Z,45.94
2022-09-22T11:25:59.211Z,47.92
2022-09-22T11:26:59.221Z,45.21
2022-09-22T11:27:59.133Z,45.01
2022-09-22T11:28:59.144Z,44.20
2022-09-22T11:29:59.122Z,47.82
2022-09-22T11:30:59.161Z,46.51
2022-09-22T11:31:59.106Z,46.72
2022-09-22T11:32:59.087Z,49.21
2022-09-22T11:33:59.080Z,44.79
2022-09-22T11:34:59.076Z,45.09
2022-09-22T11:35:59.077Z,45.29
2022-09-22T11:36:59.066Z,44.18
2022-09-22T11:37:59.038Z,44.79
2022-09-22T11:38:59.028Z,47.19
2022-09-22T11:39:59.011Z,45.37
2022-09-22T11:40:59.019Z,44.26
2022-09-22T11:41:59.060Z,44.76
2022-09-22T11:43:02.101Z,43.86
2022-09-22T11:44:00.138Z,44.26
2022-09-22T11:44:58.988Z,43.96
2022-09-22T11:45:59.013Z,45.34
2022-09-22T11:46:58.973Z,43.36
2022-09-22T11:47:58.943Z,44.76
2022-09-22T11:48:58.935Z,45.17
2022-09-22T11:49:58.933Z,44.34
2022-09-22T11:50:58.916Z,44.14
2022-09-22T11:51:58.905Z,44.84
2022-09-22T11:52:58.935Z,43.74
2022-09-22T11:53:58.877Z,43.04
2022-09-22T11:55:00.488Z,43.34
2022-09-22T11:55:58.865Z,42.54
2022-09-22T11:56:58.869Z,42.74
2022-09-22T11:57:58.838Z,41.63
2022-09-22T11:58:58.838Z,43.16
2022-09-22T11:59:58.824Z,43.96
2022-09-22T12:00:58.810Z,43.46
2022-09-22T12:01:58.910Z,43.46
2022-09-22T12:03:02.054Z,43.56
2022-09-22T12:03:58.782Z,45.57
2022-09-22T12:04:58.782Z,45.26
2022-09-22T12:05:58.763Z,45.06
2022-09-22T12:06:58.762Z,45.37
2022-09-22T12:07:58.744Z,45.75
2022-09-22T12:08:58.737Z,44.82
2022-09-22T12:09:58.725Z,41.82
2022-09-22T12:10:58.724Z,43.52
2022-09-22T12:11:58.896Z,43.30
2022-09-22T12:12:58.697Z,45.30
2022-09-22T12:13:58.688Z,42.60
2022-09-22T12:14:58.678Z,43.62
2022-09-22T12:15:58.872Z,44.02
2022-09-22T12:16:58.699Z,46.12
2022-09-22T12:17:58.647Z,43.40
2022-09-22T12:18:58.756Z,41.79
2022-09-22T12:19:58.631Z,41.11
2022-09-22T12:20:58.620Z,41.51
2022-09-22T12:21:58.622Z,41.21
2022-09-22T12:22:58.621Z,40.33
2022-09-22T12:23:58.616Z,40.33
2022-09-22T12:24:58.586Z,44.26
2022-09-22T12:25:58.572Z,42.86
2022-09-22T12:26:58.575Z,43.54
2022-09-22T12:27:58.553Z,42.55
2022-09-22T12:28:58.562Z,42.66
2022-09-22T12:29:58.545Z,42.94
2022-09-22T12:30:58.635Z,42.41
2022-09-22T12:31:58.525Z,42.02
2022-09-22T12:32:58.507Z,41.69
2022-09-22T12:33:58.583Z,40.79
2022-09-22T12:34:58.479Z,42.90
2022-09-22T12:35:58.470Z,42.40
2022-09-22T12:36:58.483Z,40.97
2022-09-22T12:37:58.459Z,40.87
2022-09-22T12:38:58.451Z,42.76
2022-09-22T12:39:58.431Z,39.45
2022-09-22T12:40:58.441Z,40.05
2022-09-22T12:41:58.412Z,41.05
2022-09-22T12:42:58.414Z,39.97
2022-09-22T12:43:58.428Z,39.67
2022-09-22T12:44:58.393Z,41.17
2022-09-22T12:45:58.451Z,38.68
2022-09-22T12:46:58.374Z,39.69
2022-09-22T12:47:58.363Z,39.79
2022-09-22T12:48:58.425Z,39.59
2022-09-22T12:49:58.333Z,39.51
2022-09-22T12:50:58.353Z,39.61
2022-09-22T12:51:58.336Z,42.21
2022-09-22T12:52:58.309Z,42.40
2022-09-22T12:53:58.298Z,42.38